sensor_id;sensor_type;location;lat;lon;timestamp;pressure;altitude;pressure_sealevel;temperature;humidity
21779;BME280;11050;52.222;20.916;2023-04-30T00:00:20;99872.97;;;13.76;100.00
21779;BME280;11050;52.222;20.916;2023-04-30T00:02:46;99864.94;;;13.75;100.00
21779;BME280;11050;52.222;20.916;2023-04-30T00:05:11;99868.00;;;13.73;100.00
21779;BME280;11050;52.222;20.916;2023-04-30T00:07:37;99866.13;;;13.69;100.00
21779;BME280;11050;52.222;20.916;2023-04-30T00:10:08;99869.44;;;13.66;100.00
21779;BME280;11050;52.222;20.916;2023-04-30T00:12:34;99864.78;;;13.61;100.00
21779;BME280;11050;52.222;20.916;2023-04-30T00:15:00;99863.69;;;13.57;100.00
21779;BME280;11050;52.222;20.916;2023-04-30T00:17:26;99865.59;;;13.62;100.00
21779;BME280;11050;52.222;20.916;2023-04-30T00:19:52;99862.53;;;13.63;100.00
21779;BME280;11050;52.222;20.916;2023-04-30T00:22:17;99870.56;;;13.65;100.00
21779;BME280;11050;52.222;20.916;2023-04-30T00:24:43;99868.88;;;13.64;100.00
21779;BME280;11050;52.222;20.916;2023-04-30T00:27:09;99873.88;;;13.62;100.00
21779;BME280;11050;52.222;20.916;2023-04-30T00:29:35;99865.88;;;13.60;100.00
21779;BME280;11050;52.222;20.916;2023-04-30T00:32:02;99872.78;;;13.58;100.00
21779;BME280;11050;52.222;20.916;2023-04-30T00:34:27;99874.16;;;13.60;100.00
21779;BME280;11050;52.222;20.916;2023-04-30T00:36:53;99885.19;;;13.60;100.00
21779;BME280;11050;52.222;20.916;2023-04-30T00:39:19;99884.94;;;13.57;100.00
21779;BME280;11050;52.222;20.916;2023-04-30T00:41:45;99886.91;;;13.51;100.00
21779;BME280;11050;52.222;20.916;2023-04-30T00:44:10;99885.78;;;13.52;100.00
21779;BME280;11050;52.222;20.916;2023-04-30T00:46:36;99886.06;;;13.51;100.00
21779;BME280;11050;52.222;20.916;2023-04-30T00:49:02;99888.56;;;13.47;100.00
21779;BME280;11050;52.222;20.916;2023-04-30T00:51:31;99883.34;;;13.46;100.00
21779;BME280;11050;52.222;20.916;2023-04-30T00:54:01;99894.13;;;13.42;100.00
21779;BME280;11050;52.222;20.916;2023-04-30T00:56:28;99889.69;;;13.41;100.00
21779;BME280;11050;52.222;20.916;2023-04-30T00:58:58;99877.31;;;13.39;100.00
21779;BME280;11050;52.222;20.916;2023-04-30T01:01:26;99882.28;;;13.37;100.00
21779;BME280;11050;52.222;20.916;2023-04-30T01:03:53;99890.81;;;13.40;100.00
21779;BME280;11050;52.222;20.916;2023-04-30T01:06:20;99886.44;;;13.34;100.00
21779;BME280;11050;52.222;20.916;2023-04-30T01:08:47;99885.59;;;13.33;100.00
21779;BME280;11050;52.222;20.916;2023-04-30T01:14:43;99890.56;;;13.31;100.00
21779;BME280;11050;52.222;20.916;2023-04-30T01:20:01;99885.59;;;13.33;100.00
21779;BME280;11050;52.222;20.916;2023-04-30T01:25:29;99892.50;;;13.36;100.00
21779;BME280;11050;52.222;20.916;2023-04-30T01:28:24;99893.88;;;13.39;100.00
21779;BME280;11050;52.222;20.916;2023-04-30T01:30:50;99883.69;;;13.29;100.00
21779;BME280;11050;52.222;20.916;2023-04-30T01:34:02;99884.50;;;13.29;100.00
21779;BME280;11050;52.222;20.916;2023-04-30T01:42:32;99901.06;;;13.35;100.00
21779;BME280;11050;52.222;20.916;2023-04-30T01:45:52;99902.16;;;13.33;100.00
21779;BME280;11050;52.222;20.916;2023-04-30T01:49:14;99900.78;;;13.36;100.00
21779;BME280;11050;52.222;20.916;2023-04-30T01:51:46;99903.28;;;13.32;100.00
21779;BME280;11050;52.222;20.916;2023-04-30T01:54:38;99902.72;;;13.30;100.00
21779;BME280;11050;52.222;20.916;2023-04-30T01:57:27;99911.81;;;13.36;100.00
21779;BME280;11050;52.222;20.916;2023-04-30T01:59:53;99907.66;;;13.33;100.00
21779;BME280;11050;52.222;20.916;2023-04-30T02:02:19;99908.75;;;13.38;100.00
21779;BME280;11050;52.222;20.916;2023-04-30T02:04:45;99908.22;;;13.36;100.00
21779;BME280;11050;52.222;20.916;2023-04-30T02:07:20;99916.22;;;13.37;100.00
21779;BME280;11050;52.222;20.916;2023-04-30T02:09:50;99913.44;;;13.37;100.00
21779;BME280;11050;52.222;20.916;2023-04-30T02:12:16;99911.25;;;13.34;100.00
21779;BME280;11050;52.222;20.916;2023-04-30T02:14:41;99917.34;;;13.36;100.00
21779;BME280;11050;52.222;20.916;2023-04-30T02:17:07;99914.28;;;13.38;100.00
21779;BME280;11050;52.222;20.916;2023-04-30T02:19:33;99916.47;;;13.41;100.00
21779;BME280;11050;52.222;20.916;2023-04-30T02:21:58;99922.81;;;13.41;100.00
21779;BME280;11050;52.222;20.916;2023-04-30T02:24:24;99920.31;;;13.45;100.00
21779;BME280;11050;52.222;20.916;2023-04-30T02:26:50;99924.50;;;13.42;100.00
21779;BME280;11050;52.222;20.916;2023-04-30T02:29:15;99917.88;;;13.38;100.00
21779;BME280;11050;52.222;20.916;2023-04-30T02:31:41;99936.63;;;13.41;100.00
21779;BME280;11050;52.222;20.916;2023-04-30T02:34:07;99936.63;;;13.41;100.00
21779;BME280;11050;52.222;20.916;2023-04-30T02:36:33;99935.78;;;13.41;100.00
21779;BME280;11050;52.222;20.916;2023-04-30T02:39:01;99941.06;;;13.37;100.00
21779;BME280;11050;52.222;20.916;2023-04-30T02:41:26;99941.66;;;13.29;100.00
21779;BME280;11050;52.222;20.916;2023-04-30T02:43:52;99950.72;;;13.29;100.00
21779;BME280;11050;52.222;20.916;2023-04-30T02:46:18;99944.66;;;13.27;100.00
21779;BME280;11050;52.222;20.916;2023-04-30T02:48:44;99952.69;;;13.24;100.00
21779;BME280;11050;52.222;20.916;2023-04-30T02:51:09;99955.44;;;13.24;100.00
21779;BME280;11050;52.222;20.916;2023-04-30T02:53:35;99955.72;;;13.22;100.00
21779;BME280;11050;52.222;20.916;2023-04-30T02:56:01;99961.81;;;13.19;100.00
21779;BME280;11050;52.222;20.916;2023-04-30T02:58:26;99962.38;;;13.21;100.00
21779;BME280;11050;52.222;20.916;2023-04-30T03:00:52;99961.25;;;13.22;100.00
21779;BME280;11050;52.222;20.916;2023-04-30T03:03:18;99968.44;;;13.23;100.00
21779;BME280;11050;52.222;20.916;2023-04-30T03:05:43;99975.63;;;13.19;100.00
21779;BME280;11050;52.222;20.916;2023-04-30T03:08:09;99972.03;;;13.19;100.00
21779;BME280;11050;52.222;20.916;2023-04-30T03:10:35;99980.59;;;13.17;100.00
21779;BME280;11050;52.222;20.916;2023-04-30T03:13:00;99978.63;;;13.18;100.00
21779;BME280;11050;52.222;20.916;2023-04-30T03:15:26;99977.25;;;13.10;100.00
21779;BME280;11050;52.222;20.916;2023-04-30T03:17:51;99986.09;;;13.07;100.00
21779;BME280;11050;52.222;20.916;2023-04-30T03:20:17;99983.91;;;13.09;100.00
21779;BME280;11050;52.222;20.916;2023-04-30T03:22:43;99985.81;;;13.09;100.00
21779;BME280;11050;52.222;20.916;2023-04-30T03:25:09;99978.66;;;13.03;100.00
21779;BME280;11050;52.222;20.916;2023-04-30T03:27:35;99994.66;;;13.06;100.00
21779;BME280;11050;52.222;20.916;2023-04-30T03:30:00;99990.78;;;13.07;100.00
21779;BME280;11050;52.222;20.916;2023-04-30T03:32:26;99993.28;;;13.03;100.00
21779;BME280;11050;52.222;20.916;2023-04-30T03:34:52;99998.78;;;13.03;100.00
21779;BME280;11050;52.222;20.916;2023-04-30T03:37:17;100009.53;;;12.95;100.00
21779;BME280;11050;52.222;20.916;2023-04-30T03:39:43;100000.16;;;12.76;100.00
21779;BME280;11050;52.222;20.916;2023-04-30T03:42:08;100022.22;;;12.76;100.00
21779;BME280;11050;52.222;20.916;2023-04-30T03:44:34;100017.81;;;12.70;100.00
21779;BME280;11050;52.222;20.916;2023-04-30T03:47:00;100032.13;;;12.57;100.00
21779;BME280;11050;52.222;20.916;2023-04-30T03:49:25;100045.31;;;12.45;100.00
21779;BME280;11050;52.222;20.916;2023-04-30T03:51:51;100039.81;;;12.34;100.00
21779;BME280;11050;52.222;20.916;2023-04-30T03:54:17;100042.81;;;12.23;100.00
21779;BME280;11050;52.222;20.916;2023-04-30T03:56:42;100047.19;;;12.14;100.00
21779;BME280;11050;52.222;20.916;2023-04-30T03:59:08;100052.38;;;12.00;100.00
21779;BME280;11050;52.222;20.916;2023-04-30T04:01:34;100053.72;;;11.98;100.00
21779;BME280;11050;52.222;20.916;2023-04-30T04:04:00;100067.47;;;11.93;100.00
21779;BME280;11050;52.222;20.916;2023-04-30T04:06:26;100072.97;;;11.93;100.00
21779;BME280;11050;52.222;20.916;2023-04-30T04:08:52;100072.66;;;11.84;99.49
21779;BME280;11050;52.222;20.916;2023-04-30T04:11:18;100070.44;;;11.76;97.69
21779;BME280;11050;52.222;20.916;2023-04-30T04:13:43;100087.75;;;11.77;96.31
21779;BME280;11050;52.222;20.916;2023-04-30T04:16:09;100093.78;;;11.69;95.48
21779;BME280;11050;52.222;20.916;2023-04-30T04:18:35;100094.28;;;11.66;93.98
21779;BME280;11050;52.222;20.916;2023-04-30T04:21:01;100097.03;;;11.66;94.19
21779;BME280;11050;52.222;20.916;2023-04-30T04:23:26;100104.22;;;11.67;94.62
21779;BME280;11050;52.222;20.916;2023-04-30T04:25:52;100104.25;;;11.72;93.89
21779;BME280;11050;52.222;20.916;2023-04-30T04:28:18;100109.00;;;11.81;94.12
21779;BME280;11050;52.222;20.916;2023-04-30T04:30:44;100113.44;;;11.87;94.08
21779;BME280;11050;52.222;20.916;2023-04-30T04:33:10;100113.44;;;11.92;93.86
21779;BME280;11050;52.222;20.916;2023-04-30T04:35:36;100116.78;;;11.94;94.70
21779;BME280;11050;52.222;20.916;2023-04-30T04:38:02;100119.25;;;11.96;94.89
21779;BME280;11050;52.222;20.916;2023-04-30T04:40:29;100129.19;;;11.97;94.05
21779;BME280;11050;52.222;20.916;2023-04-30T04:42:55;100125.31;;;11.98;92.20
21779;BME280;11050;52.222;20.916;2023-04-30T04:45:21;100139.66;;;12.00;91.53
21779;BME280;11050;52.222;20.916;2023-04-30T04:47:46;100142.69;;;12.03;90.65
21779;BME280;11050;52.222;20.916;2023-04-30T04:50:13;100145.19;;;12.05;90.77
21779;BME280;11050;52.222;20.916;2023-04-30T04:52:39;100144.31;;;11.99;90.58
21779;BME280;11050;52.222;20.916;2023-04-30T04:55:05;100151.56;;;12.10;90.67
21779;BME280;11050;52.222;20.916;2023-04-30T04:57:32;100151.31;;;12.17;90.90
21779;BME280;11050;52.222;20.916;2023-04-30T04:59:57;100163.47;;;12.26;89.72
21779;BME280;11050;52.222;20.916;2023-04-30T05:02:23;100164.88;;;12.28;90.41
21779;BME280;11050;52.222;20.916;2023-04-30T05:04:49;100160.44;;;12.27;89.43
21779;BME280;11050;52.222;20.916;2023-04-30T05:07:16;100167.38;;;12.35;90.20
21779;BME280;11050;52.222;20.916;2023-04-30T05:09:45;100165.75;;;12.39;90.45
21779;BME280;11050;52.222;20.916;2023-04-30T05:12:12;100182.03;;;12.41;89.76
21779;BME280;11050;52.222;20.916;2023-04-30T05:14:38;100170.16;;;12.40;89.89
21779;BME280;11050;52.222;20.916;2023-04-30T05:17:04;100187.53;;;12.41;89.84
21779;BME280;11050;52.222;20.916;2023-04-30T05:19:30;100193.06;;;12.46;89.88
21779;BME280;11050;52.222;20.916;2023-04-30T05:21:56;100189.50;;;12.50;89.21
21779;BME280;11050;52.222;20.916;2023-04-30T05:24:22;100190.59;;;12.54;89.07
21779;BME280;11050;52.222;20.916;2023-04-30T05:26:48;100202.53;;;12.65;89.12
21779;BME280;11050;52.222;20.916;2023-04-30T05:29:13;100201.72;;;12.74;88.56
21779;BME280;11050;52.222;20.916;2023-04-30T05:31:39;100206.69;;;12.77;87.83
21779;BME280;11050;52.222;20.916;2023-04-30T05:34:06;100209.19;;;12.79;88.70
21779;BME280;11050;52.222;20.916;2023-04-30T05:36:32;100214.75;;;12.89;87.14
21779;BME280;11050;52.222;20.916;2023-04-30T05:38:57;100207.59;;;12.93;87.85
21779;BME280;11050;52.222;20.916;2023-04-30T05:41:23;100210.06;;;12.94;87.51
21779;BME280;11050;52.222;20.916;2023-04-30T05:43:48;100218.09;;;13.01;87.29
21779;BME280;11050;52.222;20.916;2023-04-30T05:46:14;100222.53;;;13.07;86.96
21779;BME280;11050;52.222;20.916;2023-04-30T05:48:40;100222.81;;;13.10;85.75
21779;BME280;11050;52.222;20.916;2023-04-30T05:51:06;100231.41;;;13.14;86.64
21779;BME280;11050;52.222;20.916;2023-04-30T05:53:32;100222.00;;;13.20;86.57
21779;BME280;11050;52.222;20.916;2023-04-30T05:55:57;100236.13;;;13.23;86.43
21779;BME280;11050;52.222;20.916;2023-04-30T05:58:24;100232.78;;;13.31;87.61
21779;BME280;11050;52.222;20.916;2023-04-30T06:00:50;100237.50;;;13.41;87.61
21779;BME280;11050;52.222;20.916;2023-04-30T06:03:18;100228.13;;;13.52;86.67
21779;BME280;11050;52.222;20.916;2023-04-30T06:05:44;100246.09;;;13.65;86.60
21779;BME280;11050;52.222;20.916;2023-04-30T06:08:09;100245.28;;;13.74;85.45
21779;BME280;11050;52.222;20.916;2023-04-30T06:10:35;100243.88;;;13.77;84.16
21779;BME280;11050;52.222;20.916;2023-04-30T06:13:02;100240.56;;;13.75;84.08
21779;BME280;11050;52.222;20.916;2023-04-30T06:15:28;100242.22;;;13.71;85.71
21779;BME280;11050;52.222;20.916;2023-04-30T06:17:53;100260.47;;;13.67;85.29
21779;BME280;11050;52.222;20.916;2023-04-30T06:20:19;100253.00;;;13.57;87.21
21779;BME280;11050;52.222;20.916;2023-04-30T06:22:45;100264.59;;;13.44;89.35
21779;BME280;11050;52.222;20.916;2023-04-30T06:25:11;100251.59;;;13.40;90.87
21779;BME280;11050;52.222;20.916;2023-04-30T06:27:36;100256.84;;;13.36;91.28
21779;BME280;11050;52.222;20.916;2023-04-30T06:30:02;100265.63;;;13.33;91.72
21779;BME280;11050;52.222;20.916;2023-04-30T06:32:28;100254.03;;;13.26;90.09
21779;BME280;11050;52.222;20.916;2023-04-30T06:34:54;100263.16;;;13.21;89.58
21779;BME280;11050;52.222;20.916;2023-04-30T06:37:20;100264.19;;;13.05;89.27
21779;BME280;11050;52.222;20.916;2023-04-30T06:39:45;100251.94;;;12.86;88.37
21779;BME280;11050;52.222;20.916;2023-04-30T06:42:11;100262.13;;;12.71;88.90
21779;BME280;11050;52.222;20.916;2023-04-30T06:44:37;100259.53;;;12.54;90.71
21779;BME280;11050;52.222;20.916;2023-04-30T06:47:02;100265.03;;;12.49;91.22
21779;BME280;11050;52.222;20.916;2023-04-30T06:49:28;100266.44;;;12.57;87.25
21779;BME280;11050;52.222;20.916;2023-04-30T06:51:54;100262.97;;;12.81;83.49
21779;BME280;11050;52.222;20.916;2023-04-30T06:54:23;100264.13;;;12.95;79.52
21779;BME280;11050;52.222;20.916;2023-04-30T06:56:51;100276.13;;;13.16;76.01
21779;BME280;11050;52.222;20.916;2023-04-30T06:59:17;100285.25;;;13.26;73.64
21779;BME280;11050;52.222;20.916;2023-04-30T07:01:42;100273.94;;;13.38;71.44
21779;BME280;11050;52.222;20.916;2023-04-30T07:04:08;100284.16;;;13.43;66.54
21779;BME280;11050;52.222;20.916;2023-04-30T07:06:33;100274.16;;;13.16;66.86
21779;BME280;11050;52.222;20.916;2023-04-30T07:08:59;100287.66;;;13.13;67.58
21779;BME280;11050;52.222;20.916;2023-04-30T07:11:25;100288.56;;;13.33;67.74
21779;BME280;11050;52.222;20.916;2023-04-30T07:13:51;100284.75;;;13.55;65.68
21779;BME280;11050;52.222;20.916;2023-04-30T07:16:17;100290.84;;;13.67;59.99
21779;BME280;11050;52.222;20.916;2023-04-30T07:18:43;100282.53;;;13.62;61.13
21779;BME280;11050;52.222;20.916;2023-04-30T07:21:09;100290.84;;;13.77;60.51
21779;BME280;11050;52.222;20.916;2023-04-30T07:23:35;100293.88;;;14.10;60.71
21779;BME280;11050;52.222;20.916;2023-04-30T07:26:00;100299.69;;;14.39;59.12
21779;BME280;11050;52.222;20.916;2023-04-30T07:28:26;100305.44;;;14.68;57.54
21779;BME280;11050;52.222;20.916;2023-04-30T07:30:52;100301.78;;;14.92;54.96
21779;BME280;11050;52.222;20.916;2023-04-30T07:33:17;100303.91;;;15.15;53.94
21779;BME280;11050;52.222;20.916;2023-04-30T07:35:43;100298.91;;;15.17;54.05
21779;BME280;11050;52.222;20.916;2023-04-30T07:38:09;100305.88;;;15.00;54.60
21779;BME280;11050;52.222;20.916;2023-04-30T07:40:35;100312.06;;;14.82;53.56
21779;BME280;11050;52.222;20.916;2023-04-30T07:43:00;100309.59;;;14.70;55.00
21779;BME280;11050;52.222;20.916;2023-04-30T07:45:26;100317.06;;;14.65;54.65
21779;BME280;11050;52.222;20.916;2023-04-30T07:47:52;100324.81;;;14.68;51.65
21779;BME280;11050;52.222;20.916;2023-04-30T07:50:17;100324.53;;;14.64;51.08
21779;BME280;11050;52.222;20.916;2023-04-30T07:52:43;100322.06;;;14.58;50.81
21779;BME280;11050;52.222;20.916;2023-04-30T07:55:09;100318.47;;;14.52;52.15
21779;BME280;11050;52.222;20.916;2023-04-30T07:57:35;100319.56;;;14.66;51.45
21779;BME280;11050;52.222;20.916;2023-04-30T08:00:00;100320.63;;;14.75;50.42
21779;BME280;11050;52.222;20.916;2023-04-30T08:02:26;100336.72;;;14.68;49.43
21779;BME280;11050;52.222;20.916;2023-04-30T08:04:52;100322.31;;;14.71;50.10
21779;BME280;11050;52.222;20.916;2023-04-30T08:07:17;100332.25;;;14.77;49.87
21779;BME280;11050;52.222;20.916;2023-04-30T08:09:45;100324.50;;;14.79;50.19
21779;BME280;11050;52.222;20.916;2023-04-30T08:12:11;100338.91;;;14.71;50.53
21779;BME280;11050;52.222;20.916;2023-04-30T08:14:36;100331.47;;;14.67;50.02
21779;BME280;11050;52.222;20.916;2023-04-30T08:17:02;100333.94;;;14.58;51.84
21779;BME280;11050;52.222;20.916;2023-04-30T08:19:28;100335.59;;;14.74;50.60
21779;BME280;11050;52.222;20.916;2023-04-30T08:21:54;100338.63;;;14.78;48.71
21779;BME280;11050;52.222;20.916;2023-04-30T08:24:20;100341.66;;;14.71;47.13
21779;BME280;11050;52.222;20.916;2023-04-30T08:26:46;100336.44;;;14.55;47.68
21779;BME280;11050;52.222;20.916;2023-04-30T08:29:12;100342.53;;;14.57;47.79
21779;BME280;11050;52.222;20.916;2023-04-30T08:31:37;100341.97;;;14.60;47.14
21779;BME280;11050;52.222;20.916;2023-04-30T08:34:03;100347.78;;;14.68;46.47
21779;BME280;11050;52.222;20.916;2023-04-30T08:36:29;100359.38;;;14.75;45.34
21779;BME280;11050;52.222;20.916;2023-04-30T08:38:54;100346.09;;;14.72;44.62
21779;BME280;11050;52.222;20.916;2023-04-30T08:41:25;100360.47;;;14.69;42.51
21779;BME280;11050;52.222;20.916;2023-04-30T08:43:52;100355.53;;;14.66;43.19
21779;BME280;11050;52.222;20.916;2023-04-30T08:46:22;100355.22;;;14.78;41.87
21779;BME280;11050;52.222;20.916;2023-04-30T08:48:49;100364.31;;;14.88;39.95
21779;BME280;11050;52.222;20.916;2023-04-30T08:51:15;100359.31;;;14.95;39.25
21779;BME280;11050;52.222;20.916;2023-04-30T08:53:42;100357.97;;;14.83;40.37
21779;BME280;11050;52.222;20.916;2023-04-30T08:56:11;100362.66;;;14.82;40.16
21779;BME280;11050;52.222;20.916;2023-04-30T08:58:38;100369.31;;;14.76;39.24
21779;BME280;11050;52.222;20.916;2023-04-30T09:01:07;100369.88;;;14.83;36.46
21779;BME280;11050;52.222;20.916;2023-04-30T09:03:35;100364.09;;;14.70;37.71
21779;BME280;11050;52.222;20.916;2023-04-30T09:06:01;100374.84;;;14.81;37.59
21779;BME280;11050;52.222;20.916;2023-04-30T09:08:45;100367.91;;;14.94;34.32
21779;BME280;11050;52.222;20.916;2023-04-30T09:11:25;100374.81;;;14.91;32.29
21779;BME280;11050;52.222;20.916;2023-04-30T09:13:56;100371.25;;;14.81;34.24
21779;BME280;11050;52.222;20.916;2023-04-30T09:16:24;100379.19;;;15.12;36.05
21779;BME280;11050;52.222;20.916;2023-04-30T09:18:51;100384.72;;;15.17;34.36
21779;BME280;11050;52.222;20.916;2023-04-30T09:21:34;100386.41;;;15.03;36.39
21779;BME280;11050;52.222;20.916;2023-04-30T09:24:05;100385.31;;;15.04;37.27
21779;BME280;11050;52.222;20.916;2023-04-30T09:26:37;100382.25;;;15.06;36.20
21779;BME280;11050;52.222;20.916;2023-04-30T09:29:04;100393.84;;;15.18;35.55
21779;BME280;11050;52.222;20.916;2023-04-30T09:31:34;100390.53;;;15.21;32.49
21779;BME280;11050;52.222;20.916;2023-04-30T09:34:00;100400.72;;;15.26;33.12
21779;BME280;11050;52.222;20.916;2023-04-30T09:36:26;100394.69;;;15.18;33.98
21779;BME280;11050;52.222;20.916;2023-04-30T09:38:52;100382.53;;;15.09;34.23
21779;BME280;11050;52.222;20.916;2023-04-30T09:41:27;100392.16;;;15.22;34.89
21779;BME280;11050;52.222;20.916;2023-04-30T09:43:55;100393.22;;;15.31;34.00
21779;BME280;11050;52.222;20.916;2023-04-30T09:46:29;100392.94;;;15.38;34.68
21779;BME280;11050;52.222;20.916;2023-04-30T09:48:58;100392.09;;;15.37;35.46
21779;BME280;11050;52.222;20.916;2023-04-30T09:51:24;100386.56;;;15.47;35.77
21779;BME280;11050;52.222;20.916;2023-04-30T09:53:52;100384.59;;;15.53;34.67
21779;BME280;11050;52.222;20.916;2023-04-30T09:56:26;100399.75;;;15.70;35.99
21779;BME280;11050;52.222;20.916;2023-04-30T09:58:54;100396.56;;;15.97;34.64
21779;BME280;11050;52.222;20.916;2023-04-30T10:01:25;100396.13;;;16.19;34.73
21779;BME280;11050;52.222;20.916;2023-04-30T10:03:52;100386.34;;;16.26;34.04
21779;BME280;11050;52.222;20.916;2023-04-30T10:06:20;100385.25;;;16.27;33.74
21779;BME280;11050;52.222;20.916;2023-04-30T10:08:50;100401.88;;;16.27;34.21
21779;BME280;11050;52.222;20.916;2023-04-30T10:11:20;100399.63;;;16.29;33.84
21779;BME280;11050;52.222;20.916;2023-04-30T10:13:53;100378.09;;;16.21;33.22
21779;BME280;11050;52.222;20.916;2023-04-30T10:16:52;100397.28;;;16.46;33.49
21779;BME280;11050;52.222;20.916;2023-04-30T10:19:29;100393.16;;;16.44;31.83
21779;BME280;11050;52.222;20.916;2023-04-30T10:21:57;100389.50;;;16.53;32.64
21779;BME280;11050;52.222;20.916;2023-04-30T10:24:22;100389.06;;;16.70;32.24
21779;BME280;11050;52.222;20.916;2023-04-30T10:26:49;100392.84;;;16.79;33.09
21779;BME280;11050;52.222;20.916;2023-04-30T10:29:16;100408.41;;;16.80;32.65
21779;BME280;11050;52.222;20.916;2023-04-30T10:31:47;100387.00;;;16.52;33.22
21779;BME280;11050;52.222;20.916;2023-04-30T10:37:42;100382.03;;;16.77;31.30
21779;BME280;11050;52.222;20.916;2023-04-30T10:40:08;100396.31;;;16.94;31.10
21779;BME280;11050;52.222;20.916;2023-04-30T10:42:35;100396.47;;;17.03;30.30
21779;BME280;11050;52.222;20.916;2023-04-30T10:45:02;100383.44;;;17.03;30.14
21779;BME280;11050;52.222;20.916;2023-04-30T10:47:28;100394.72;;;17.36;31.26
21779;BME280;11050;52.222;20.916;2023-04-30T10:50:03;100381.59;;;17.41;31.00
21779;BME280;11050;52.222;20.916;2023-04-30T10:52:29;100393.06;;;17.58;29.70
21779;BME280;11050;52.222;20.916;2023-04-30T10:54:55;100397.56;;;17.78;28.81
21779;BME280;11050;52.222;20.916;2023-04-30T10:57:21;100393.78;;;18.25;26.98
21779;BME280;11050;52.222;20.916;2023-04-30T10:59:51;100397.44;;;18.57;28.04
21779;BME280;11050;52.222;20.916;2023-04-30T11:02:18;100394.22;;;18.82;27.57
21779;BME280;11050;52.222;20.916;2023-04-30T11:05:09;100404.97;;;18.89;28.92
21779;BME280;11050;52.222;20.916;2023-04-30T11:07:36;100419.56;;;19.27;27.63
21779;BME280;11050;52.222;20.916;2023-04-30T11:10:06;100404.41;;;19.33;27.58
21779;BME280;11050;52.222;20.916;2023-04-30T11:12:33;100404.31;;;19.65;28.04
21779;BME280;11050;52.222;20.916;2023-04-30T11:15:11;100397.88;;;20.27;27.66
21779;BME280;11050;52.222;20.916;2023-04-30T11:17:37;100412.25;;;20.78;26.76
21779;BME280;11050;52.222;20.916;2023-04-30T11:20:04;100401.34;;;20.99;25.55
21779;BME280;11050;52.222;20.916;2023-04-30T11:22:30;100399.03;;;21.23;24.56
21779;BME280;11050;52.222;20.916;2023-04-30T11:25:11;100409.84;;;21.47;24.41
21779;BME280;11050;52.222;20.916;2023-04-30T11:27:44;100411.06;;;21.72;24.71
21779;BME280;11050;52.222;20.916;2023-04-30T11:30:15;100412.84;;;22.32;23.89
21779;BME280;11050;52.222;20.916;2023-04-30T11:32:48;100410.88;;;22.58;21.91
21779;BME280;11050;52.222;20.916;2023-04-30T11:35:17;100409.16;;;23.00;22.93
21779;BME280;11050;52.222;20.916;2023-04-30T11:37:44;100403.13;;;23.36;23.21
21779;BME280;11050;52.222;20.916;2023-04-30T11:40:13;100411.84;;;23.72;21.15
21779;BME280;11050;52.222;20.916;2023-04-30T11:42:42;100418.34;;;23.93;21.27
21779;BME280;11050;52.222;20.916;2023-04-30T11:45:16;100413.97;;;24.33;20.38
21779;BME280;11050;52.222;20.916;2023-04-30T11:47:46;100433.69;;;24.66;19.65
21779;BME280;11050;52.222;20.916;2023-04-30T11:50:17;100414.00;;;24.45;20.55
21779;BME280;11050;52.222;20.916;2023-04-30T11:52:49;100420.53;;;24.79;19.67
21779;BME280;11050;52.222;20.916;2023-04-30T11:55:17;100426.41;;;25.30;19.99
21779;BME280;11050;52.222;20.916;2023-04-30T11:57:46;100421.81;;;25.83;20.37
21779;BME280;11050;52.222;20.916;2023-04-30T12:00:19;100442.34;;;26.59;18.53
21779;BME280;11050;52.222;20.916;2023-04-30T12:02:48;100443.72;;;26.13;17.66
21779;BME280;11050;52.222;20.916;2023-04-30T12:05:22;100441.63;;;25.74;18.58
21779;BME280;11050;52.222;20.916;2023-04-30T12:08:08;100433.16;;;25.98;17.78
21779;BME280;11050;52.222;20.916;2023-04-30T12:10:35;100435.41;;;26.17;17.99
21779;BME280;11050;52.222;20.916;2023-04-30T12:13:01;100444.22;;;26.55;18.94
21779;BME280;11050;52.222;20.916;2023-04-30T12:15:28;100444.31;;;27.26;18.52
21779;BME280;11050;52.222;20.916;2023-04-30T12:17:56;100448.19;;;27.65;16.90
21779;BME280;11050;52.222;20.916;2023-04-30T12:20:29;100457.22;;;27.27;17.75
21779;BME280;11050;52.222;20.916;2023-04-30T12:22:56;100446.59;;;26.93;17.34
21779;BME280;11050;52.222;20.916;2023-04-30T12:25:23;100448.88;;;26.36;19.35
21779;BME280;11050;52.222;20.916;2023-04-30T12:27:51;100438.97;;;26.81;17.96
21779;BME280;11050;52.222;20.916;2023-04-30T12:30:25;100428.44;;;26.78;17.97
21779;BME280;11050;52.222;20.916;2023-04-30T12:32:57;100441.72;;;26.78;18.55
21779;BME280;11050;52.222;20.916;2023-04-30T12:35:26;100436.53;;;27.23;17.72
21779;BME280;11050;52.222;20.916;2023-04-30T12:38:01;100438.88;;;27.80;17.98
21779;BME280;11050;52.222;20.916;2023-04-30T12:40:27;100443.09;;;28.01;16.61
21779;BME280;11050;52.222;20.916;2023-04-30T12:43:06;100446.97;;;28.13;16.54
21779;BME280;11050;52.222;20.916;2023-04-30T12:45:51;100431.25;;;28.31;16.21
21779;BME280;11050;52.222;20.916;2023-04-30T12:48:20;100438.59;;;28.70;15.52
21779;BME280;11050;52.222;20.916;2023-04-30T12:50:58;100446.03;;;28.59;15.45
21779;BME280;11050;52.222;20.916;2023-04-30T12:53:24;100437.22;;;28.45;15.68
21779;BME280;11050;52.222;20.916;2023-04-30T12:56:15;100432.81;;;28.47;15.66
21779;BME280;11050;52.222;20.916;2023-04-30T12:58:43;100435.25;;;28.83;16.08
21779;BME280;11050;52.222;20.916;2023-04-30T13:01:20;100436.81;;;29.19;14.60
21779;BME280;11050;52.222;20.916;2023-04-30T13:03:46;100433.44;;;28.94;14.42